createdAt,value
2023-04-17T00:00:04.752Z,14.83
2023-04-17T00:02:40.090Z,15.50
2023-04-17T00:05:13.691Z,13.10
2023-04-17T00:07:46.623Z,13.97
2023-04-17T00:10:19.505Z,14.13
2023-04-17T00:12:53.646Z,19.33
2023-04-17T00:15:26.820Z,14.77
2023-04-17T00:17:59.865Z,14.60
2023-04-17T00:20:32.838Z,13.83
2023-04-17T00:23:05.637Z,16.37
2023-04-17T00:25:38.398Z,16.57
2023-04-17T00:28:12.586Z,14.07
2023-04-17T00:30:45.503Z,17.27
2023-04-17T00:33:18.241Z,13.70
2023-04-17T00:35:53.442Z,14.67
2023-04-17T00:38:26.349Z,17.87
2023-04-17T00:40:59.244Z,17.23
2023-04-17T00:43:33.512Z,12.67
2023-04-17T00:46:06.719Z,13.60
2023-04-17T00:48:40.920Z,16.53
2023-04-17T00:51:13.859Z,16.00
2023-04-17T00:53:47.101Z,16.70
2023-04-17T00:56:20.053Z,14.67
2023-04-17T00:58:55.624Z,16.77
2023-04-17T01:01:28.488Z,15.23
2023-04-17T01:04:01.950Z,15.73
2023-04-17T01:06:34.992Z,15.57
2023-04-17T01:09:08.325Z,15.27
2023-04-17T01:11:41.077Z,16.60
2023-04-17T01:14:15.637Z,18.27
2023-04-17T01:16:48.721Z,15.53
2023-04-17T01:19:21.708Z,13.87
2023-04-17T01:21:54.570Z,16.93
2023-04-17T01:24:28.701Z,14.57
2023-04-17T01:27:01.651Z,16.23
2023-04-17T01:29:36.768Z,16.80
2023-04-17T01:32:09.874Z,14.43
2023-04-17T01:34:42.580Z,15.23
2023-04-17T01:37:15.488Z,16.40
2023-04-17T01:39:49.697Z,17.33
2023-04-17T01:42:22.529Z,17.50
2023-04-17T01:44:55.287Z,16.87
2023-04-17T01:47:28.157Z,16.07
2023-04-17T01:50:01.014Z,16.90
2023-04-17T01:52:33.873Z,15.67
2023-04-17T01:55:08.291Z,16.83
2023-04-17T01:57:42.268Z,14.93
2023-04-17T02:00:15.400Z,16.17
2023-04-17T02:02:48.235Z,14.23
2023-04-17T02:05:21.083Z,15.00
2023-04-17T02:07:55.185Z,20.17
2023-04-17T02:10:29.386Z,19.63
2023-04-17T02:13:02.124Z,15.57
2023-04-17T02:15:36.917Z,17.33
2023-04-17T02:18:09.841Z,15.10
2023-04-17T02:20:42.645Z,16.57
2023-04-17T02:23:15.440Z,18.00
2023-04-17T02:25:50.124Z,17.70
2023-04-17T02:28:22.903Z,15.90
2023-04-17T02:30:55.870Z,16.33
2023-04-17T02:33:28.701Z,16.33
2023-04-17T02:36:01.388Z,14.80
2023-04-17T02:38:34.298Z,16.07
2023-04-17T02:41:08.492Z,17.03
2023-04-17T02:43:41.195Z,16.83
2023-04-17T02:46:14.022Z,17.17
2023-04-17T02:48:46.826Z,16.23
2023-04-17T02:51:19.714Z,17.93
2023-04-17T02:53:52.449Z,17.23
2023-04-17T02:56:29.680Z,18.10
2023-04-17T02:59:02.449Z,15.87
2023-04-17T03:01:37.583Z,16.27
2023-04-17T03:04:10.379Z,19.63
2023-04-17T03:06:43.227Z,17.97
2023-04-17T03:09:18.428Z,18.47
2023-04-17T03:11:57.138Z,17.90
2023-04-17T03:14:29.862Z,18.03
2023-04-17T03:17:02.628Z,16.93
2023-04-17T03:19:35.712Z,19.73
2023-04-17T03:22:08.588Z,17.83
2023-04-17T03:24:41.754Z,19.87
2023-04-17T03:27:18.145Z,15.87
2023-04-17T03:29:51.108Z,16.67
2023-04-17T03:32:23.898Z,18.47
2023-04-17T03:34:56.636Z,18.67
2023-04-17T03:37:29.350Z,20.00
2023-04-17T03:40:05.450Z,17.87
2023-04-17T03:42:39.631Z,19.53
2023-04-17T03:45:12.711Z,17.30
2023-04-17T03:47:45.684Z,16.17
2023-04-17T03:50:18.688Z,20.10
2023-04-17T03:52:51.527Z,18.93
2023-04-17T03:55:24.235Z,19.07
2023-04-17T03:57:58.369Z,17.87
2023-04-17T04:00:31.648Z,21.27
2023-04-17T04:03:04.621Z,19.53
2023-04-17T04:05:37.627Z,18.87
2023-04-17T04:08:10.371Z,22.53
2023-04-17T04:10:44.983Z,22.50
2023-04-17T04:13:19.146Z,20.53
2023-04-17T04:15:51.997Z,19.10
2023-04-17T04:18:24.841Z,22.77
2023-04-17T04:20:57.613Z,22.03
2023-04-17T04:23:30.498Z,21.40
2023-04-17T04:26:03.482Z,21.47
2023-04-17T04:28:38.157Z,21.77
2023-04-17T04:31:11.144Z,19.17
2023-04-17T04:33:45.164Z,23.63
2023-04-17T04:36:21.063Z,20.77
2023-04-17T04:38:53.751Z,21.50
2023-04-17T04:41:26.818Z,20.47
2023-04-17T04:44:03.557Z,20.93
2023-04-17T04:46:36.408Z,21.17
2023-04-17T04:49:09.664Z,19.33
2023-04-17T04:51:42.700Z,22.97
2023-04-17T04:54:15.690Z,23.33
2023-04-17T04:56:49.063Z,23.20
2023-04-17T04:59:23.128Z,19.37
2023-04-17T05:01:56.880Z,20.47
2023-04-17T05:04:29.728Z,20.63
2023-04-17T05:07:04.965Z,20.27
2023-04-17T05:09:37.705Z,22.80
2023-04-17T05:12:10.536Z,21.63
2023-04-17T05:14:44.684Z,19.67
2023-04-17T05:17:17.555Z,27.90
2023-04-17T05:19:50.355Z,23.43
2023-04-17T05:22:23.166Z,22.93
2023-04-17T05:24:55.877Z,27.27
2023-04-17T05:27:28.807Z,25.97
2023-04-17T05:30:03.099Z,24.90
2023-04-17T05:32:35.984Z,27.80
2023-04-17T05:35:09.186Z,27.43
2023-04-17T05:37:41.950Z,25.57
2023-04-17T05:40:14.744Z,29.87
2023-04-17T05:42:47.493Z,25.33
2023-04-17T05:45:27.431Z,23.87
2023-04-17T05:48:00.394Z,29.00
2023-04-17T05:50:33.112Z,30.93
2023-04-17T05:53:06.037Z,27.90
2023-04-17T05:55:38.931Z,27.43
2023-04-17T06:00:50.825Z,33.90
2023-04-17T06:03:23.914Z,29.43
2023-04-17T06:05:57.312Z,28.47
2023-04-17T06:08:30.047Z,25.70
2023-04-17T06:11:03.068Z,30.67
2023-04-17T06:13:35.988Z,31.43
2023-04-17T06:16:13.212Z,30.53
2023-04-17T06:18:46.072Z,29.20
2023-04-17T06:21:18.857Z,29.87
2023-04-17T06:23:52.080Z,33.53
2023-04-17T06:26:24.774Z,28.53
2023-04-17T06:28:58.502Z,28.83
2023-04-17T06:31:32.970Z,29.40
2023-04-17T06:34:05.763Z,32.07
2023-04-17T06:36:38.747Z,28.30
2023-04-17T06:39:11.651Z,27.83
2023-04-17T06:41:46.497Z,30.00
2023-04-17T06:44:19.425Z,28.13
2023-04-17T06:46:54.258Z,26.87
2023-04-17T06:49:27.110Z,33.80
2023-04-17T06:51:59.891Z,26.87
2023-04-17T06:54:34.872Z,29.77
2023-04-17T06:57:10.613Z,29.10
2023-04-17T06:59:44.941Z,27.73
2023-04-17T07:02:19.529Z,28.67
2023-04-17T07:04:53.343Z,28.20
2023-04-17T07:07:26.952Z,29.30
2023-04-17T07:09:59.800Z,29.33
2023-04-17T07:12:32.745Z,27.57
2023-04-17T07:15:06.078Z,25.00
2023-04-17T07:17:40.537Z,25.97
2023-04-17T07:20:13.329Z,24.07
2023-04-17T07:22:46.728Z,26.27
2023-04-17T07:25:22.111Z,27.97
2023-04-17T07:27:54.728Z,25.10
2023-04-17T07:30:28.662Z,28.93
2023-04-17T07:33:03.157Z,27.30
2023-04-17T07:35:36.388Z,26.17
2023-04-17T07:38:11.365Z,27.37
2023-04-17T07:40:44.189Z,28.30
2023-04-17T07:43:18.312Z,24.33
2023-04-17T07:45:51.303Z,26.37
2023-04-17T07:48:27.310Z,26.97
2023-04-17T07:51:00.613Z,25.47
2023-04-17T07:53:38.586Z,26.27
2023-04-17T07:56:13.206Z,29.87
2023-04-17T07:58:46.461Z,26.90
2023-04-17T08:01:21.616Z,28.53
2023-04-17T08:03:56.241Z,24.97
2023-04-17T08:06:29.372Z,25.47
2023-04-17T08:09:02.234Z,22.80
2023-04-17T08:11:46.015Z,22.97
2023-04-17T08:14:28.876Z,21.03
2023-04-17T08:17:01.986Z,22.17
2023-04-17T08:19:36.328Z,22.87
2023-04-17T08:22:09.182Z,26.63
2023-04-17T08:24:43.648Z,26.40
2023-04-17T08:27:16.494Z,22.40
2023-04-17T08:29:49.277Z,23.77
2023-04-17T08:32:24.295Z,22.63
2023-04-17T08:35:00.396Z,21.33
2023-04-17T08:37:35.097Z,21.57
2023-04-17T08:40:09.417Z,19.07
2023-04-17T08:42:42.986Z,20.07
2023-04-17T08:45:20.005Z,21.90
2023-04-17T08:47:53.316Z,21.77
2023-04-17T08:50:30.572Z,20.73
2023-04-17T08:53:03.394Z,19.87
2023-04-17T08:55:36.378Z,19.97
2023-04-17T08:58:09.239Z,19.57
2023-04-17T09:00:43.582Z,20.37
2023-04-17T09:03:16.833Z,20.80
2023-04-17T09:05:54.942Z,19.03
2023-04-17T09:08:29.192Z,21.53
2023-04-17T09:11:02.617Z,18.10
2023-04-17T09:13:43.976Z,20.47
2023-04-17T09:16:16.917Z,21.47
2023-04-17T09:18:50.387Z,20.70
2023-04-17T09:21:28.731Z,18.27
2023-04-17T09:24:01.588Z,21.27
2023-04-17T09:26:35.929Z,21.30
2023-04-17T09:29:11.867Z,19.77
2023-04-17T09:31:46.307Z,21.13
2023-04-17T09:34:20.692Z,19.10
2023-04-17T09:36:55.228Z,17.63
2023-04-17T09:39:28.001Z,18.23
2023-04-17T09:42:03.798Z,15.63
2023-04-17T09:44:37.973Z,17.13
2023-04-17T09:47:11.256Z,15.53
2023-04-17T09:49:49.622Z,19.80
2023-04-17T09:52:24.792Z,17.57
2023-04-17T09:54:57.783Z,17.40
2023-04-17T09:57:30.668Z,16.57
2023-04-17T10:00:05.935Z,19.30
2023-04-17T10:02:39.416Z,18.30
2023-04-17T10:05:13.620Z,17.70
2023-04-17T10:07:47.936Z,18.20
2023-04-17T10:10:28.816Z,16.43
2023-04-17T10:13:02.772Z,16.43
2023-04-17T10:15:36.238Z,14.70
2023-04-17T10:18:23.000Z,16.87
2023-04-17T10:20:56.744Z,18.20
2023-04-17T10:23:32.067Z,16.03
2023-04-17T10:26:25.613Z,17.80
2023-04-17T10:28:58.570Z,16.23
2023-04-17T10:31:46.456Z,17.30
2023-04-17T10:34:34.972Z,25.47
2023-04-17T10:37:09.019Z,14.70
2023-04-17T10:39:53.140Z,15.07
2023-04-17T10:42:28.058Z,15.70
2023-04-17T10:45:04.872Z,14.00
2023-04-17T10:47:39.129Z,17.23
2023-04-17T10:50:12.103Z,12.57
2023-04-17T10:52:45.729Z,12.83
2023-04-17T10:55:22.123Z,17.00
2023-04-17T10:57:59.850Z,13.17
2023-04-17T11:00:33.839Z,16.17
2023-04-17T11:03:07.588Z,14.37
2023-04-17T11:05:47.301Z,13.00
2023-04-17T11:08:21.171Z,15.23
2023-04-17T11:10:56.952Z,14.27
2023-04-17T11:13:33.748Z,14.90
2023-04-17T11:16:07.482Z,15.63
2023-04-17T11:18:40.451Z,15.23
2023-04-17T11:21:13.593Z,16.27
2023-04-17T11:23:51.043Z,18.93
2023-04-17T11:26:25.660Z,13.90
2023-04-17T11:28:59.659Z,15.67
2023-04-17T11:31:32.371Z,13.90
2023-04-17T11:34:08.267Z,15.20
2023-04-17T11:36:41.278Z,17.60
2023-04-17T11:39:15.777Z,18.60
2023-04-17T11:41:51.823Z,13.53
2023-04-17T11:44:24.759Z,16.77
2023-04-17T11:46:58.635Z,16.67
2023-04-17T11:49:32.016Z,14.10
2023-04-17T11:52:05.682Z,13.53
2023-04-17T11:54:39.357Z,12.73
2023-04-17T11:57:14.356Z,17.80
2023-04-17T11:59:47.367Z,17.20
2023-04-17T12:02:33.054Z,16.53
2023-04-17T12:05:15.765Z,13.03
2023-04-17T12:07:48.868Z,12.73
2023-04-17T12:10:22.015Z,14.90
2023-04-17T12:12:56.618Z,15.27
2023-04-17T12:15:29.705Z,15.17
2023-04-17T12:18:05.591Z,18.00
2023-04-17T12:20:39.092Z,19.03
2023-04-17T12:23:12.343Z,15.97
2023-04-17T12:25:45.588Z,19.73
2023-04-17T12:28:20.261Z,14.40
2023-04-17T12:30:53.061Z,15.07
2023-04-17T12:33:25.876Z,25.13
2023-04-17T12:36:01.222Z,14.70
2023-04-17T12:38:34.182Z,18.37
2023-04-17T12:41:07.251Z,16.33
2023-04-17T12:43:41.705Z,13.70
2023-04-17T12:46:17.188Z,22.30
2023-04-17T12:48:50.415Z,14.60
2023-04-17T12:51:23.281Z,18.07
2023-04-17T12:53:58.733Z,14.23
2023-04-17T12:56:31.761Z,13.27
2023-04-17T12:59:05.967Z,16.67
2023-04-17T13:01:39.097Z,13.47
2023-04-17T13:04:13.161Z,17.40
2023-04-17T13:06:46.679Z,14.40
2023-04-17T13:09:19.999Z,16.30
2023-04-17T13:11:52.816Z,15.63
2023-04-17T13:14:29.808Z,15.23
2023-04-17T13:17:03.974Z,16.00
2023-04-17T13:19:36.855Z,17.73
2023-04-17T13:22:10.305Z,23.37
2023-04-17T13:24:43.231Z,30.80
2023-04-17T13:27:16.886Z,20.77
2023-04-17T13:29:51.062Z,17.83
2023-04-17T13:32:24.128Z,19.17
2023-04-17T13:34:58.816Z,20.93
2023-04-17T13:37:32.047Z,18.20
2023-04-17T13:40:05.616Z,23.60
2023-04-17T13:42:38.908Z,21.53
2023-04-17T13:45:13.497Z,17.10
2023-04-17T13:47:49.006Z,18.87
2023-04-17T13:50:22.045Z,19.60
2023-04-17T13:52:54.991Z,20.67
2023-04-17T13:55:27.669Z,21.10
2023-04-17T13:58:03.993Z,23.30
2023-04-17T14:00:38.866Z,20.77
2023-04-17T14:03:12.056Z,23.00
2023-04-17T14:05:44.943Z,23.63
2023-04-17T14:08:17.851Z,22.73
2023-04-17T14:10:52.694Z,22.20
2023-04-17T14:13:25.600Z,21.80
2023-04-17T14:15:59.894Z,21.73
2023-04-17T14:18:32.882Z,22.80
2023-04-17T14:21:05.757Z,22.80
2023-04-17T14:23:38.629Z,21.63
2023-04-17T14:26:11.572Z,19.97
2023-04-17T14:28:44.565Z,23.77
2023-04-17T14:31:18.724Z,22.53
2023-04-17T14:33:51.566Z,25.80
2023-04-17T14:36:24.615Z,22.07
2023-04-17T14:38:57.405Z,18.53
2023-04-17T14:41:34.188Z,21.43
2023-04-17T14:44:07.308Z,21.80
2023-04-17T14:46:42.945Z,19.13
2023-04-17T14:49:15.875Z,21.13
2023-04-17T14:51:48.815Z,18.87
2023-04-17T14:54:21.697Z,20.60
2023-04-17T14:56:54.512Z,18.97
2023-04-17T14:59:27.925Z,20.90
2023-04-17T15:02:02.244Z,18.97
2023-04-17T15:04:37.607Z,23.03
2023-04-17T15:07:10.367Z,19.43
2023-04-17T15:09:46.956Z,17.47
2023-04-17T15:12:19.746Z,19.13
2023-04-17T15:14:52.544Z,16.70
2023-04-17T15:17:26.667Z,17.93
2023-04-17T15:20:00.796Z,16.80
2023-04-17T15:22:33.950Z,16.60
2023-04-17T15:25:07.119Z,16.93
2023-04-17T15:27:39.891Z,16.63
2023-04-17T15:30:13.320Z,15.83
2023-04-17T15:32:47.529Z,15.90
2023-04-17T15:35:22.725Z,17.73
2023-04-17T15:37:55.548Z,16.90
2023-04-17T15:40:28.514Z,16.83
2023-04-17T15:43:01.573Z,19.00
2023-04-17T15:45:36.769Z,17.43
2023-04-17T15:48:12.657Z,18.90
2023-04-17T15:50:49.284Z,18.17
2023-04-17T15:53:22.054Z,18.67
2023-04-17T15:55:54.859Z,17.93
2023-04-17T15:58:29.999Z,17.23
2023-04-17T16:01:03.014Z,17.43
2023-04-17T16:03:37.649Z,19.87
2023-04-17T16:06:11.303Z,15.93
2023-04-17T16:08:44.039Z,14.50
2023-04-17T16:11:16.855Z,15.53
2023-04-17T16:13:50.013Z,14.33
2023-04-17T16:16:22.990Z,15.50
2023-04-17T16:18:57.140Z,14.63
2023-04-17T16:21:30.030Z,16.10
2023-04-17T16:24:02.723Z,15.27
2023-04-17T16:26:36.922Z,18.03
2023-04-17T16:29:09.716Z,15.43
2023-04-17T16:31:42.654Z,14.03
2023-04-17T16:34:17.150Z,17.23
2023-04-17T16:36:50.092Z,18.90
2023-04-17T16:39:23.128Z,18.60
2023-04-17T16:41:56.239Z,18.03
2023-04-17T16:44:29.282Z,18.63
2023-04-17T16:47:13.598Z,16.00
2023-04-17T16:49:48.868Z,17.30
2023-04-17T16:52:21.630Z,16.90
2023-04-17T16:54:54.507Z,14.53
2023-04-17T16:57:27.231Z,16.27
2023-04-17T16:59:59.841Z,15.73
2023-04-17T17:02:32.858Z,18.33
2023-04-17T17:05:15.749Z,15.53
2023-04-17T17:07:48.596Z,15.97
2023-04-17T17:10:21.369Z,16.80
2023-04-17T17:12:54.174Z,24.10
2023-04-17T17:15:26.929Z,15.97
2023-04-17T17:17:59.496Z,15.30
2023-04-17T17:20:33.619Z,16.07
2023-04-17T17:23:06.404Z,15.67
2023-04-17T17:25:39.045Z,16.70
2023-04-17T17:28:11.737Z,15.73
2023-04-17T17:30:44.796Z,14.87
2023-04-17T17:33:17.680Z,16.80
2023-04-17T17:35:51.836Z,19.70
2023-04-17T17:38:24.875Z,15.17
2023-04-17T17:40:57.653Z,16.23
2023-04-17T17:43:32.040Z,14.40
2023-04-17T17:46:05.399Z,15.43
2023-04-17T17:48:38.233Z,14.23
2023-04-17T17:51:14.762Z,15.80
2023-04-17T17:53:47.496Z,16.27
2023-04-17T17:56:21.687Z,15.87
2023-04-17T17:58:55.083Z,16.27
2023-04-17T18:01:27.935Z,15.20
2023-04-17T18:04:00.829Z,13.57
2023-04-17T18:06:35.204Z,14.33
2023-04-17T18:09:08.099Z,14.13
2023-04-17T18:11:40.950Z,17.67
2023-04-17T18:14:13.974Z,15.07
2023-04-17T18:16:48.433Z,16.00
2023-04-17T18:19:21.392Z,15.60
2023-04-17T18:21:55.463Z,16.53
2023-04-17T18:24:31.859Z,15.47
2023-04-17T18:27:04.669Z,17.27
2023-04-17T18:29:37.446Z,14.40
2023-04-17T18:32:10.230Z,16.27
2023-04-17T18:34:51.986Z,15.63
2023-04-17T18:37:26.173Z,16.60
2023-04-17T18:39:58.947Z,16.97
2023-04-17T18:42:31.743Z,18.90
2023-04-17T18:45:07.764Z,18.30
2023-04-17T18:47:40.388Z,18.33
2023-04-17T18:50:13.252Z,17.53
2023-04-17T18:52:51.208Z,16.47
2023-04-17T18:55:24.221Z,18.33
2023-04-17T18:57:57.183Z,19.83
2023-04-17T19:00:30.028Z,19.30
2023-04-17T19:03:02.910Z,20.03
2023-04-17T19:05:36.071Z,19.57
2023-04-17T19:08:10.565Z,18.80
2023-04-17T19:10:43.305Z,20.33
2023-04-17T19:13:16.052Z,21.90
2023-04-17T19:15:48.912Z,20.37
2023-04-17T19:18:21.694Z,21.00
2023-04-17T19:20:54.412Z,20.03
2023-04-17T19:23:32.599Z,21.50
2023-04-17T19:26:05.375Z,19.63
2023-04-17T19:28:38.141Z,21.73
2023-04-17T19:31:10.916Z,21.97
2023-04-17T19:33:45.722Z,19.80
2023-04-17T19:36:21.478Z,21.60
2023-04-17T19:38:56.449Z,21.93
2023-04-17T19:41:29.239Z,21.60
2023-04-17T19:44:02.011Z,20.00
2023-04-17T19:46:34.854Z,21.70
2023-04-17T19:49:07.626Z,20.53
2023-04-17T19:51:40.466Z,21.53
2023-04-17T19:54:15.745Z,22.83
2023-04-17T19:56:51.385Z,20.90
2023-04-17T19:59:24.519Z,25.20
2023-04-17T20:01:57.321Z,22.53
2023-04-17T20:04:30.126Z,21.67
2023-04-17T20:07:02.939Z,19.67
2023-04-17T20:09:39.669Z,20.97
2023-04-17T20:12:12.483Z,18.80
2023-04-17T20:14:46.212Z,23.03
2023-04-17T20:17:21.983Z,19.07
2023-04-17T20:19:54.756Z,24.33
2023-04-17T20:22:27.502Z,19.73
2023-04-17T20:25:01.722Z,21.73
2023-04-17T20:27:34.477Z,24.47
2023-04-17T20:30:13.077Z,20.07
2023-04-17T20:32:46.190Z,21.90
2023-04-17T20:35:20.881Z,18.97
2023-04-17T20:37:53.901Z,18.67
2023-04-17T20:40:28.185Z,18.70
2023-04-17T20:43:00.891Z,19.30
2023-04-17T20:45:33.692Z,19.83
2023-04-17T20:48:06.469Z,20.47
2023-04-17T20:50:39.358Z,21.00
2023-04-17T20:53:12.106Z,18.17
2023-04-17T20:55:47.002Z,16.80
2023-04-17T20:58:20.121Z,21.77
2023-04-17T21:01:00.488Z,18.67
2023-04-17T21:03:34.545Z,19.57
2023-04-17T21:06:07.764Z,21.67
2023-04-17T21:08:40.565Z,19.77
2023-04-17T21:11:17.786Z,19.90
2023-04-17T21:13:50.478Z,18.90
2023-04-17T21:16:23.263Z,20.80
2023-04-17T21:18:56.056Z,19.47
2023-04-17T21:21:28.834Z,20.07
2023-04-17T21:24:01.577Z,21.33
2023-04-17T21:26:35.984Z,20.87
2023-04-17T21:29:11.087Z,22.77
2023-04-17T21:31:44.151Z,21.73
2023-04-17T21:34:17.193Z,18.97
2023-04-17T21:36:50.005Z,20.83
2023-04-17T21:39:25.661Z,18.93
2023-04-17T21:42:01.950Z,22.33
2023-04-17T21:44:35.050Z,19.73
2023-04-17T21:47:07.722Z,19.30
2023-04-17T21:49:40.492Z,16.77
2023-04-17T21:52:13.245Z,18.03
2023-04-17T21:54:45.958Z,19.83
2023-04-17T21:57:21.032Z,17.17
2023-04-17T21:59:53.813Z,18.53
2023-04-17T22:02:26.718Z,22.90
2023-04-17T22:04:59.452Z,17.57
2023-04-17T22:07:47.197Z,19.60
2023-04-17T22:10:29.075Z,19.43
2023-04-17T22:13:03.455Z,19.30
2023-04-17T22:15:36.302Z,20.50
2023-04-17T22:18:12.700Z,17.20
2023-04-17T22:20:45.796Z,20.30
2023-04-17T22:23:20.917Z,23.17
2023-04-17T22:25:53.630Z,18.50
2023-04-17T22:28:29.283Z,19.07
2023-04-17T22:31:02.652Z,21.43
2023-04-17T22:33:35.412Z,18.40
2023-04-17T22:36:08.370Z,21.30
2023-04-17T22:38:48.216Z,19.83
2023-04-17T22:41:22.853Z,18.27
2023-04-17T22:43:56.984Z,19.27
2023-04-17T22:46:29.784Z,18.60
2023-04-17T22:49:05.491Z,20.90
2023-04-17T22:51:38.248Z,21.83
2023-04-17T22:54:22.003Z,23.00
2023-04-17T22:56:55.722Z,18.40
2023-04-17T22:59:29.976Z,19.53
2023-04-17T23:02:03.244Z,20.20
2023-04-17T23:04:36.160Z,22.33
2023-04-17T23:07:09.066Z,20.50
2023-04-17T23:09:41.696Z,21.20
2023-04-17T23:12:17.824Z,17.27
2023-04-17T23:14:52.384Z,21.20
2023-04-17T23:17:25.221Z,18.77
2023-04-17T23:19:57.946Z,21.03
2023-04-17T23:22:30.920Z,23.43
2023-04-17T23:25:04.125Z,20.27
2023-04-17T23:27:36.945Z,22.70
2023-04-17T23:30:11.943Z,23.10
2023-04-17T23:32:45.173Z,21.07
2023-04-17T23:35:18.201Z,22.40
2023-04-17T23:37:51.559Z,23.07
2023-04-17T23:40:24.286Z,19.47
2023-04-17T23:42:59.514Z,22.67
2023-04-17T23:45:36.942Z,24.67
2023-04-17T23:48:09.797Z,22.30
2023-04-17T23:50:42.679Z,21.67
2023-04-17T23:53:15.621Z,25.77
2023-04-17T23:55:48.557Z,21.73
2023-04-17T23:58:21.322Z,23.40
